Time;durP1;ratioP1;P1;durP2;ratioP2;P2;SDS_P1;SDS_P2;PMS_P1;PMS_P2;Temp;Humidity;BMP_temperature;BMP_pressure;BME280_temperature;BME280_humidity;BME280_pressure;Samples;Min_cycle;Max_cycle;Signal;HPM_P1;HPM_P2
2023/08/16 00:01:16;;;;;;;14.03;7.00;;;21.60;99.90;;;;;;4963561;28;20208;-79
2023/08/16 00:03:42;;;;;;;10.90;7.13;;;21.50;99.90;;;;;;4967998;28;20223;-79
2023/08/16 00:06:16;;;;;;;9.63;6.20;;;21.50;99.90;;;;;;4970395;28;20970;-80
2023/08/16 00:08:42;;;;;;;7.23;6.30;;;21.40;1.00;;;;;;4978375;28;20454;-80
2023/08/16 00:11:09;;;;;;;9.80;6.63;;;21.40;1.00;;;;;;4972027;28;20467;-80
2023/08/16 00:13:35;;;;;;;10.77;6.20;;;21.40;1.00;;;;;;4970397;28;20591;-81
2023/08/16 00:16:01;;;;;;;8.27;6.83;;;21.40;1.00;;;;;;4963414;28;20535;-80
2023/08/16 00:18:27;;;;;;;10.03;6.90;;;21.30;1.00;;;;;;4965521;28;20196;-80
2023/08/16 00:20:53;;;;;;;7.93;6.00;;;21.40;1.00;;;;;;4964310;28;20859;-81
2023/08/16 00:23:18;;;;;;;10.73;6.30;;;21.30;1.00;;;;;;4965835;28;20436;-80
2023/08/16 00:25:44;;;;;;;9.43;7.07;;;21.30;1.00;;;;;;4970736;28;20189;-80
2023/08/16 00:28:09;;;;;;;8.00;7.20;;;21.30;1.00;;;;;;4969596;28;20185;-81
2023/08/16 00:30:35;;;;;;;7.70;7.00;;;21.30;1.00;;;;;;4970912;28;20215;-79
2023/08/16 00:33:00;;;;;;;8.73;6.40;;;21.30;1.00;;;;;;4967304;28;20307;-80
2023/08/16 00:35:26;;;;;;;10.07;7.00;;;21.30;1.00;;;;;;4956068;28;20209;-81
2023/08/16 00:37:52;;;;;;;7.77;6.47;;;21.20;1.00;;;;;;4966907;28;20188;-80
2023/08/16 00:40:17;;;;;;;10.53;6.77;;;21.20;1.00;;;;;;4970344;28;20207;-80
2023/08/16 00:42:43;;;;;;;13.13;7.40;;;21.10;1.00;;;;;;4969345;28;20524;-80
2023/08/16 00:45:09;;;;;;;10.77;7.50;;;21.10;1.00;;;;;;4971595;28;20201;-81
2023/08/16 00:47:35;;;;;;;10.10;7.83;;;21.10;1.00;;;;;;4966991;28;20210;-80
2023/08/16 00:50:01;;;;;;;11.57;7.03;;;21.10;1.00;;;;;;4970353;28;20474;-81
2023/08/16 00:52:27;;;;;;;11.70;6.90;;;21.10;1.00;;;;;;4971991;28;20568;-81
2023/08/16 00:54:54;;;;;;;10.37;7.20;;;21.00;1.00;;;;;;4959928;28;20444;-79
2023/08/16 00:57:20;;;;;;;14.23;7.30;;;21.00;1.00;;;;;;4973821;28;20187;-80
2023/08/16 00:59:46;;;;;;;15.90;8.27;;;20.90;25.50;;;;;;4970682;28;20525;-80
2023/08/16 01:02:14;;;;;;;10.37;7.27;;;20.90;57.00;;;;;;4974654;28;20180;-80
2023/08/16 01:04:40;;;;;;;9.93;6.90;;;20.90;99.90;;;;;;4969609;28;20533;-80
2023/08/16 01:07:07;;;;;;;11.40;7.90;;;20.90;99.90;;;;;;4975856;28;20443;-78
2023/08/16 01:09:32;;;;;;;8.13;6.53;;;20.80;99.90;;;;;;4970475;28;20897;-80
2023/08/16 01:12:24;;;;;;;8.60;7.60;;;20.80;99.90;;;;;;4970539;28;20533;-78
2023/08/16 01:15:15;;;;;;;8.60;7.63;;;20.80;99.90;;;;;;4966871;28;20200;-81
2023/08/16 01:17:42;;;;;;;7.70;6.83;;;20.70;99.90;;;;;;4970625;28;20454;-80
2023/08/16 01:20:10;;;;;;;7.97;7.23;;;20.60;1.00;;;;;;4972533;28;20482;-81
2023/08/16 01:22:53;;;;;;;9.47;7.57;;;20.50;6.80;;;;;;4975766;28;20453;-81
2023/08/16 01:25:32;;;;;;;8.70;7.77;;;20.50;99.90;;;;;;4970081;28;20451;-80
2023/08/16 01:27:59;;;;;;;10.80;7.37;;;20.50;99.90;;;;;;4960815;28;20470;-79
2023/08/16 01:30:25;;;;;;;13.70;7.73;;;20.50;99.90;;;;;;4971993;28;20487;-80
2023/08/16 01:32:51;;;;;;;11.70;9.30;;;20.50;99.90;;;;;;4966376;28;20453;-79
2023/08/16 01:35:16;;;;;;;10.50;7.93;;;20.50;99.90;;;;;;4971551;28;20434;-80
2023/08/16 01:37:43;;;;;;;11.30;8.20;;;20.50;99.90;;;;;;4973531;28;20210;-80
2023/08/16 01:40:09;;;;;;;10.93;8.33;;;20.50;99.90;;;;;;4972360;28;20220;-79
2023/08/16 01:42:48;;;;;;;14.00;7.97;;;20.50;99.90;;;;;;4968062;28;21102;-78
2023/08/16 01:45:16;;;;;;;11.10;7.90;;;20.50;99.90;;;;;;4966229;28;20450;-80
2023/08/16 01:47:42;;;;;;;11.07;7.80;;;20.50;99.90;;;;;;4969745;28;20474;-79
2023/08/16 01:50:08;;;;;;;9.97;8.00;;;20.50;99.90;;;;;;4971894;28;20493;-79
2023/08/16 01:52:35;;;;;;;8.47;7.67;;;20.40;99.90;;;;;;4974657;28;20807;-80
2023/08/16 01:55:00;;;;;;;12.17;7.50;;;20.40;99.90;;;;;;4967833;28;20438;-80
2023/08/16 01:57:26;;;;;;;15.97;7.63;;;20.40;99.90;;;;;;4973224;28;20805;-79
2023/08/16 01:59:51;;;;;;;10.50;7.93;;;20.40;99.90;;;;;;4971051;28;20219;-79
2023/08/16 02:02:17;;;;;;;10.87;8.23;;;20.40;99.90;;;;;;4971599;28;20195;-79
2023/08/16 02:04:42;;;;;;;10.40;8.60;;;20.40;99.90;;;;;;4975877;28;20191;-80
2023/08/16 02:07:08;;;;;;;13.00;7.53;;;20.40;99.90;;;;;;4965838;28;20223;-80
2023/08/16 02:09:33;;;;;;;9.87;7.20;;;20.30;1.00;;;;;;4970068;28;20241;-80
2023/08/16 02:11:59;;;;;;;10.23;7.90;;;20.30;99.90;;;;;;4970568;28;20191;-80
2023/08/16 02:14:24;;;;;;;8.20;7.27;;;20.30;1.00;;;;;;4974767;28;20182;-80
2023/08/16 02:16:50;;;;;;;11.50;8.17;;;20.20;1.00;;;;;;4977028;28;20647;-80
2023/08/16 02:19:15;;;;;;;14.87;7.40;;;20.20;1.00;;;;;;4973204;28;20200;-79
2023/08/16 02:21:41;;;;;;;9.23;7.80;;;20.20;1.00;;;;;;4961225;28;20195;-81
2023/08/16 02:24:07;;;;;;;10.50;7.57;;;20.20;63.40;;;;;;4989621;28;20731;-79
2023/08/16 02:26:33;;;;;;;17.57;8.63;;;20.20;99.90;;;;;;4967611;28;20183;-80
2023/08/16 02:28:58;;;;;;;9.67;7.30;;;20.10;99.90;;;;;;4968263;28;20478;-79
2023/08/16 02:31:24;;;;;;;11.97;6.77;;;20.00;1.00;;;;;;4970797;28;20681;-80
2023/08/16 02:33:50;;;;;;;7.57;6.50;;;20.00;99.90;;;;;;4970121;28;20551;-81
2023/08/16 02:36:15;;;;;;;6.73;6.03;;;20.00;1.00;;;;;;4959210;28;20259;-80
2023/08/16 02:38:41;;;;;;;8.20;6.60;;;19.90;99.90;;;;;;4973844;28;20653;-78
2023/08/16 02:41:06;;;;;;;8.13;6.33;;;20.00;99.90;;;;;;4969151;28;20306;-80
2023/08/16 02:43:32;;;;;;;8.20;7.00;;;19.90;99.90;;;;;;4971137;28;20197;-79
2023/08/16 02:45:57;;;;;;;10.63;7.30;;;20.00;99.90;;;;;;4973540;28;20190;-79
2023/08/16 02:48:23;;;;;;;7.83;7.10;;;20.00;99.90;;;;;;4964347;28;20194;-80
2023/08/16 02:50:49;;;;;;;12.33;8.07;;;20.00;99.90;;;;;;4969205;28;20223;-79
2023/08/16 02:53:16;;;;;;;13.63;7.60;;;20.00;99.90;;;;;;4968396;28;20215;-78
2023/08/16 02:55:41;;;;;;;12.43;8.00;;;20.00;99.90;;;;;;4970333;28;20180;-80
2023/08/16 02:58:07;;;;;;;9.60;8.53;;;19.90;99.90;;;;;;4970218;28;20443;-81
2023/08/16 03:00:33;;;;;;;15.60;8.10;;;19.90;99.90;;;;;;4973664;28;20217;-79
2023/08/16 03:02:58;;;;;;;13.27;9.10;;;19.90;99.90;;;;;;4973551;28;20648;-79
2023/08/16 03:05:24;;;;;;;9.40;7.80;;;19.90;99.90;;;;;;4973049;28;20262;-79
2023/08/16 03:07:49;;;;;;;11.10;8.87;;;19.80;1.00;;;;;;4970030;28;20218;-81
2023/08/16 03:10:15;;;;;;;12.67;8.07;;;19.90;1.00;;;;;;4962030;28;20225;-79
2023/08/16 03:12:40;;;;;;;14.43;8.40;;;19.90;99.90;;;;;;4971881;28;20183;-80
2023/08/16 03:15:06;;;;;;;14.90;8.40;;;19.90;1.00;;;;;;4967355;28;20249;-81
2023/08/16 03:17:32;;;;;;;11.50;7.90;;;19.90;99.90;;;;;;4969779;28;20206;-81
2023/08/16 03:19:59;;;;;;;10.43;7.63;;;20.00;99.90;;;;;;4968700;28;20501;-80
2023/08/16 03:22:24;;;;;;;12.87;8.30;;;20.00;99.90;;;;;;4972832;28;20183;-78
2023/08/16 03:24:50;;;;;;;10.03;6.53;;;20.00;99.90;;;;;;4962299;28;20479;-78
2023/08/16 03:27:15;;;;;;;17.93;8.10;;;20.00;99.90;;;;;;4970080;28;20700;-80
2023/08/16 03:29:41;;;;;;;12.43;6.57;;;20.00;94.80;;;;;;4965865;28;20901;-80
2023/08/16 03:32:07;;;;;;;9.23;6.30;;;20.00;26.60;;;;;;4971757;28;20195;-80
2023/08/16 03:34:32;;;;;;;9.10;6.30;;;20.10;1.00;;;;;;4973218;28;20665;-79
2023/08/16 03:36:58;;;;;;;7.57;5.70;;;20.10;1.00;;;;;;4971904;28;20203;-80
2023/08/16 03:39:24;;;;;;;8.57;6.70;;;20.10;1.00;;;;;;4969984;28;20211;-80
2023/08/16 03:41:49;;;;;;;7.17;5.90;;;20.10;1.00;;;;;;4963169;28;20224;-80
2023/08/16 03:44:15;;;;;;;7.67;6.97;;;20.20;1.00;;;;;;4958858;28;20204;-80
2023/08/16 03:46:40;;;;;;;9.40;6.17;;;20.20;1.00;;;;;;4965913;28;20669;-80
2023/08/16 03:49:07;;;;;;;10.40;6.53;;;20.20;1.00;;;;;;4963477;28;20195;-80
2023/08/16 03:51:32;;;;;;;9.20;6.50;;;20.20;99.90;;;;;;4970698;28;20265;-80
2023/08/16 03:53:58;;;;;;;10.60;6.60;;;20.20;99.90;;;;;;4971219;28;20450;-80
2023/08/16 03:56:23;;;;;;;9.83;6.60;;;20.20;99.90;;;;;;4964857;28;20270;-81
2023/08/16 03:58:49;;;;;;;6.73;5.83;;;20.30;99.90;;;;;;4973167;28;20222;-80
2023/08/16 04:01:14;;;;;;;12.17;6.40;;;20.30;99.90;;;;;;4969200;28;20211;-80
2023/08/16 04:03:40;;;;;;;8.60;6.83;;;20.30;99.90;;;;;;4971024;28;20198;-80
2023/08/16 04:06:10;;;;;;;7.03;5.90;;;20.30;99.90;;;;;;4972111;28;20195;-79
2023/08/16 04:08:36;;;;;;;9.70;6.20;;;20.30;99.90;;;;;;4984212;28;20245;-79
2023/08/16 04:11:02;;;;;;;9.13;6.07;;;20.30;99.90;;;;;;4968509;28;20567;-80
2023/08/16 04:13:27;;;;;;;9.03;6.73;;;20.30;99.90;;;;;;4959431;28;20865;-80
2023/08/16 04:15:52;;;;;;;10.90;6.00;;;20.20;99.90;;;;;;4967752;28;20202;-79
2023/08/16 04:18:18;;;;;;;15.13;6.53;;;20.20;99.90;;;;;;4970957;28;20196;-79
2023/08/16 04:20:43;;;;;;;10.07;7.30;;;20.20;99.90;;;;;;4972261;28;20212;-80
2023/08/16 04:23:09;;;;;;;11.20;5.50;;;20.20;99.90;;;;;;4966562;28;20243;-81
2023/08/16 04:25:34;;;;;;;8.20;6.00;;;20.20;99.90;;;;;;4973401;28;20250;-79
2023/08/16 04:28:00;;;;;;;9.40;6.13;;;20.20;1.00;;;;;;4984632;28;20207;-80
2023/08/16 04:30:26;;;;;;;8.90;6.77;;;20.20;1.00;;;;;;4959673;28;20224;-80
2023/08/16 04:32:51;;;;;;;10.63;6.67;;;20.20;99.90;;;;;;4960145;28;20251;-80
2023/08/16 04:35:17;;;;;;;7.47;6.70;;;20.20;99.90;;;;;;4971214;28;20184;-81
2023/08/16 04:37:42;;;;;;;8.70;7.00;;;20.20;99.90;;;;;;4965652;28;20187;-81
2023/08/16 04:40:09;;;;;;;7.33;6.60;;;20.10;1.00;;;;;;4972352;28;20298;-80
2023/08/16 04:42:35;;;;;;;13.10;6.73;;;20.20;1.00;;;;;;4968718;28;20564;-81
2023/08/16 04:45:03;;;;;;;7.80;6.47;;;20.20;1.00;;;;;;4971795;28;20956;-80
2023/08/16 04:47:29;;;;;;;9.37;8.10;;;20.20;1.00;;;;;;4961038;28;20455;-79
2023/08/16 04:49:54;;;;;;;9.77;6.90;;;20.10;1.00;;;;;;4964577;28;20481;-80
2023/08/16 04:52:20;;;;;;;8.80;6.83;;;20.10;36.20;;;;;;4971108;28;20832;-80
2023/08/16 04:54:45;;;;;;;12.10;7.33;;;20.10;99.90;;;;;;4971051;28;20319;-80
2023/08/16 04:57:11;;;;;;;9.43;7.43;;;20.10;99.90;;;;;;4962673;28;20210;-82
2023/08/16 04:59:36;;;;;;;9.30;8.07;;;20.10;99.90;;;;;;4961682;28;20207;-80
2023/08/16 05:02:02;;;;;;;10.10;7.70;;;20.10;99.90;;;;;;4957904;28;20272;-79
2023/08/16 05:04:27;;;;;;;12.03;7.40;;;20.10;99.90;;;;;;4957352;28;20191;-80
2023/08/16 05:06:53;;;;;;;13.10;7.30;;;20.10;99.90;;;;;;4959199;28;20193;-80
2023/08/16 05:09:18;;;;;;;7.77;6.87;;;20.20;99.90;;;;;;4952298;28;20222;-79
2023/08/16 05:11:44;;;;;;;7.77;6.67;;;20.20;99.90;;;;;;4953315;28;20192;-80
2023/08/16 05:14:09;;;;;;;12.57;7.50;;;20.20;99.90;;;;;;4953360;28;20197;-79
2023/08/16 05:16:35;;;;;;;8.77;7.03;;;20.30;99.90;;;;;;4953266;28;20234;-79
2023/08/16 05:19:00;;;;;;;9.43;7.73;;;20.30;99.90;;;;;;4952729;28;20561;-79
2023/08/16 05:21:26;;;;;;;12.63;6.97;;;20.40;99.90;;;;;;4964966;28;20193;-78
2023/08/16 05:23:52;;;;;;;10.13;8.50;;;20.40;31.80;;;;;;4957583;28;20197;-79
2023/08/16 05:26:17;;;;;;;8.90;8.00;;;20.50;1.00;;;;;;4972111;28;20195;-80
2023/08/16 05:28:43;;;;;;;9.90;7.67;;;20.50;1.00;;;;;;4970116;28;20195;-80
2023/08/16 05:31:09;;;;;;;14.10;8.40;;;20.50;1.00;;;;;;4971151;28;20220;-80
2023/08/16 05:33:35;;;;;;;9.90;8.47;;;20.50;1.00;;;;;;4968817;28;20192;-81
2023/08/16 05:36:01;;;;;;;12.30;8.60;;;20.50;1.00;;;;;;4970632;28;20435;-81
2023/08/16 05:38:26;;;;;;;10.23;7.70;;;20.60;1.00;;;;;;4962851;28;20932;-80
2023/08/16 05:40:53;;;;;;;9.90;7.80;;;20.70;1.00;;;;;;4973059;28;20209;-80
2023/08/16 05:43:19;;;;;;;11.80;8.07;;;20.80;1.00;;;;;;4972320;28;20185;-80
2023/08/16 05:45:44;;;;;;;10.00;8.67;;;21.10;99.90;;;;;;4971949;28;20438;-79
2023/08/16 05:48:10;;;;;;;9.57;8.67;;;21.30;99.90;;;;;;4976155;28;20221;-81
2023/08/16 05:50:36;;;;;;;14.50;8.57;;;21.60;99.90;;;;;;4976327;28;21399;-80
2023/08/16 05:53:02;;;;;;;11.77;8.60;;;21.90;1.00;;;;;;4968351;28;20232;-82
2023/08/16 05:55:28;;;;;;;12.17;8.73;;;22.10;99.90;;;;;;4983594;28;20463;-82
2023/08/16 05:57:53;;;;;;;11.33;9.10;;;22.30;10.50;;;;;;4976007;28;20807;-80
2023/08/16 06:00:19;;;;;;;15.57;10.67;;;22.80;99.90;;;;;;4963271;28;20664;-82
2023/08/16 06:02:45;;;;;;;12.13;7.67;;;24.20;1.00;;;;;;4968397;28;20586;-80
2023/08/16 06:05:11;;;;;;;9.90;7.43;;;25.80;93.40;;;;;;4986597;28;20192;-82
2023/08/16 06:07:36;;;;;;;9.30;6.93;;;27.50;1.00;;;;;;4978337;28;20530;-83
2023/08/16 06:10:03;;;;;;;9.30;7.57;;;26.80;1.00;;;;;;4974185;28;20212;-83
2023/08/16 06:12:29;;;;;;;9.67;7.70;;;26.00;1.00;;;;;;4963791;28;20402;-84
2023/08/16 06:14:54;;;;;;;12.80;7.63;;;25.30;1.00;;;;;;4958594;28;20512;-82
2023/08/16 06:17:20;;;;;;;13.10;7.87;;;24.70;1.00;;;;;;4960352;28;20195;-82
2023/08/16 06:19:46;;;;;;;10.50;6.40;;;24.60;1.00;;;;;;4958471;28;20211;-84
2023/08/16 06:22:11;;;;;;;13.97;7.77;;;24.50;27.70;;;;;;4966730;28;20194;-83
2023/08/16 06:24:37;;;;;;;9.93;6.83;;;24.50;53.20;;;;;;4956103;28;20513;-82
2023/08/16 06:27:02;;;;;;;7.00;6.00;;;24.50;58.70;;;;;;4971282;28;20796;-82
2023/08/16 06:29:28;;;;;;;7.67;6.40;;;24.60;49.40;;;;;;4971791;28;20226;-83
2023/08/16 06:31:55;;;;;;;8.50;6.60;;;24.60;32.70;;;;;;4971847;28;20221;-82
2023/08/16 06:34:21;;;;;;;8.00;6.53;;;24.40;46.60;;;;;;4974418;28;20528;-83
2023/08/16 06:36:49;;;;;;;12.63;6.53;;;24.30;94.70;;;;;;4974009;28;20458;-81
2023/08/16 06:39:14;;;;;;;10.23;5.77;;;24.30;99.90;;;;;;4965961;28;20450;-83
2023/08/16 06:41:40;;;;;;;9.83;6.00;;;24.10;99.40;;;;;;4966475;28;20597;-86
2023/08/16 06:44:05;;;;;;;8.63;5.83;;;23.80;99.90;;;;;;4961688;28;20207;-83
2023/08/16 06:46:31;;;;;;;10.77;6.67;;;23.70;99.90;;;;;;4973386;28;20184;-83
2023/08/16 06:48:57;;;;;;;10.77;7.40;;;23.50;99.90;;;;;;4969931;28;20263;-82
2023/08/16 06:51:23;;;;;;;7.00;6.20;;;23.30;99.90;;;;;;4967149;28;20240;-83
2023/08/16 06:53:50;;;;;;;13.33;7.30;;;23.20;99.90;;;;;;4970395;28;20456;-83
2023/08/16 06:56:16;;;;;;;9.40;6.97;;;23.10;99.90;;;;;;4959962;28;20188;-83
2023/08/16 06:58:41;;;;;;;6.53;5.80;;;23.10;1.00;;;;;;4964300;28;20531;-84
2023/08/16 07:01:08;;;;;;;6.20;5.60;;;23.10;1.00;;;;;;4961913;28;20738;-82
2023/08/16 07:03:37;;;;;;;8.00;5.97;;;23.00;1.00;;;;;;4965981;28;20191;-84
2023/08/16 07:06:02;;;;;;;8.23;5.60;;;23.00;1.00;;;;;;4970954;28;20502;-83
2023/08/16 07:08:28;;;;;;;10.17;6.43;;;23.10;1.00;;;;;;4970634;28;20441;-82
2023/08/16 07:10:56;;;;;;;6.80;5.43;;;23.20;1.00;;;;;;4964633;28;20771;-84
2023/08/16 07:13:22;;;;;;;6.97;5.70;;;23.40;1.00;;;;;;4961319;28;20656;-84
2023/08/16 07:15:47;;;;;;;11.00;6.73;;;24.00;99.90;;;;;;4968433;28;20580;-83
2023/08/16 07:18:13;;;;;;;6.20;5.37;;;24.70;99.90;;;;;;4965122;28;20639;-83
2023/08/16 07:20:39;;;;;;;10.40;5.43;;;26.40;1.00;;;;;;4957571;28;20601;-84
2023/08/16 07:23:06;;;;;;;10.00;6.17;;;26.90;1.00;;;;;;4959022;28;20260;-83
2023/08/16 07:25:32;;;;;;;8.33;5.80;;;26.30;1.00;;;;;;4970175;28;20937;-83
2023/08/16 07:27:57;;;;;;;10.70;5.70;;;26.10;1.00;;;;;;4977091;28;20420;-83
2023/08/16 07:30:23;;;;;;;9.53;5.70;;;26.20;1.00;;;;;;4959263;28;20626;-84
2023/08/16 07:32:48;;;;;;;8.60;6.40;;;26.60;1.00;;;;;;4958838;28;20185;-84
2023/08/16 07:35:14;;;;;;;11.57;5.40;;;27.70;1.00;;;;;;4978954;28;20448;-84
2023/08/16 07:37:40;;;;;;;9.20;6.30;;;28.80;1.00;;;;;;4958710;28;20216;-84
2023/08/16 07:40:06;;;;;;;13.00;6.10;;;29.00;1.00;;;;;;4960428;28;20212;-85
2023/08/16 07:42:31;;;;;;;10.97;6.70;;;28.60;1.00;;;;;;4959555;28;20195;-86
2023/08/16 07:45:02;;;;;;;8.87;6.87;;;28.20;1.00;;;;;;4970013;28;20458;-83
2023/08/16 07:47:28;;;;;;;10.33;6.10;;;28.00;1.00;;;;;;4960107;28;20220;-84
2023/08/16 07:49:54;;;;;;;14.40;6.20;;;28.10;1.00;;;;;;4971169;28;20940;-81
2023/08/16 07:52:20;;;;;;;9.70;6.40;;;27.70;1.00;;;;;;4959675;28;20185;-84
2023/08/16 07:54:45;;;;;;;15.30;8.77;;;27.20;1.00;;;;;;4964254;28;20443;-83
2023/08/16 07:57:11;;;;;;;14.47;8.80;;;26.90;1.00;;;;;;4974517;28;20188;-83
2023/08/16 07:59:36;;;;;;;13.33;7.43;;;26.30;1.00;;;;;;4963035;28;20296;-84
2023/08/16 08:02:02;;;;;;;11.27;7.50;;;25.80;1.00;;;;;;4968748;28;20194;-84
2023/08/16 08:04:27;;;;;;;13.10;8.70;;;25.60;1.00;;;;;;4964285;28;20200;-84
2023/08/16 08:06:53;;;;;;;15.93;7.50;;;25.40;1.00;;;;;;4966575;28;20236;-83
2023/08/16 08:09:18;;;;;;;11.07;7.13;;;25.30;1.00;;;;;;4965326;28;20233;-84
2023/08/16 08:11:44;;;;;;;13.33;8.00;;;25.20;1.00;;;;;;4958763;28;20264;-84
2023/08/16 08:14:09;;;;;;;11.00;7.43;;;25.10;1.00;;;;;;4964242;28;20214;-83
2023/08/16 08:16:35;;;;;;;17.37;7.60;;;25.10;1.00;;;;;;4962515;28;20200;-83
2023/08/16 08:19:01;;;;;;;11.50;7.60;;;25.20;1.00;;;;;;4967777;28;20188;-82
2023/08/16 08:21:26;;;;;;;14.10;8.37;;;25.40;1.00;;;;;;4961823;28;20195;-82
2023/08/16 08:23:52;;;;;;;10.93;8.40;;;25.50;1.00;;;;;;4968535;28;20279;-82
2023/08/16 08:26:17;;;;;;;14.67;9.03;;;25.60;1.00;;;;;;4967544;28;20669;-84
2023/08/16 08:28:44;;;;;;;13.50;10.03;;;25.60;1.00;;;;;;4965484;28;20218;-83
2023/08/16 08:31:10;;;;;;;11.60;8.10;;;25.70;1.00;;;;;;4969334;28;20216;-83
2023/08/16 08:33:35;;;;;;;14.80;9.87;;;25.90;1.00;;;;;;4962804;28;20505;-85
2023/08/16 08:36:03;;;;;;;12.17;9.00;;;28.20;1.00;;;;;;4958769;28;20479;-83
2023/08/16 08:38:29;;;;;;;11.43;8.67;;;29.50;1.00;;;;;;4961391;28;20227;-84
2023/08/16 08:41:00;;;;;;;14.27;8.90;;;30.10;1.00;;;;;;4962607;28;20467;-84
2023/08/16 08:43:36;;;;;;;12.33;9.30;;;31.00;1.00;;;;;;4960116;28;20484;-84
2023/08/16 08:46:04;;;;;;;9.67;7.90;;;32.20;1.00;;;;;;4960353;28;20497;-83
2023/08/16 08:48:30;;;;;;;9.50;7.93;;;32.60;1.00;;;;;;4971514;28;20451;-85
2023/08/16 08:50:56;;;;;;;9.80;7.80;;;35.00;1.00;;;;;;4959953;28;20948;-84
2023/08/16 08:53:24;;;;;;;14.53;10.10;;;36.50;1.00;;;;;;4963472;28;20498;-84
2023/08/16 08:55:55;;;;;;;11.90;9.60;;;35.60;1.00;;;;;;4964612;28;20506;-84
2023/08/16 08:58:22;;;;;;;14.00;8.40;;;34.70;1.00;;;;;;4960493;28;21135;-84
2023/08/16 09:00:52;;;;;;;12.33;10.00;;;33.70;1.00;;;;;;4966688;28;20983;-84
2023/08/16 09:03:21;;;;;;;11.10;10.00;;;33.20;1.00;;;;;;4965941;28;20456;-85
2023/08/16 09:05:52;;;;;;;12.10;9.73;;;32.50;1.00;;;;;;4960495;28;20955;-84
2023/08/16 09:08:22;;;;;;;11.93;10.77;;;31.90;1.00;;;;;;4972332;28;20435;-84
2023/08/16 09:10:49;;;;;;;13.43;12.03;;;31.80;1.00;;;;;;4963641;28;20526;-84
2023/08/16 09:13:16;;;;;;;13.77;12.43;;;31.10;1.00;;;;;;4962159;28;20522;-81
2023/08/16 09:15:42;;;;;;;14.83;13.37;;;30.20;1.00;;;;;;4963215;28;20643;-83
2023/08/16 09:18:11;;;;;;;14.13;12.77;;;29.30;1.00;;;;;;4969491;28;20455;-84
2023/08/16 09:20:38;;;;;;;15.80;14.20;;;28.60;1.00;;;;;;4964361;28;20274;-82
2023/08/16 09:23:03;;;;;;;14.73;13.43;;;28.00;1.00;;;;;;4968619;28;20446;-82
2023/08/16 09:25:29;;;;;;;13.93;12.70;;;27.20;1.00;;;;;;4967446;28;20505;-84
2023/08/16 09:27:55;;;;;;;17.50;15.63;;;26.70;1.00;;;;;;4967049;28;20193;-83
2023/08/16 09:30:23;;;;;;;15.10;13.60;;;26.30;1.00;;;;;;4963059;28;20471;-83
2023/08/16 09:32:51;;;;;;;15.03;12.90;;;25.90;1.00;;;;;;4961175;28;20193;-84
2023/08/16 09:35:17;;;;;;;17.67;16.07;;;25.60;1.00;;;;;;4970304;28;20441;-82
2023/08/16 09:37:43;;;;;;;17.43;15.63;;;25.40;1.00;;;;;;4965601;28;20445;-83
2023/08/16 09:40:12;;;;;;;19.07;17.13;;;25.30;1.00;;;;;;4963452;28;20310;-84
2023/08/16 09:42:37;;;;;;;18.40;16.40;;;25.10;1.00;;;;;;4957427;28;20452;-82
2023/08/16 09:45:34;;;;;;;22.87;16.70;;;24.90;1.00;;;;;;4960627;28;20959;-82
2023/08/16 09:48:30;;;;;;;19.43;17.60;;;24.90;1.00;;;;;;4954276;28;20227;-82
2023/08/16 09:51:03;;;;;;;22.50;17.03;;;24.70;21.70;;;;;;4953335;28;20490;-82
2023/08/16 09:53:30;;;;;;;18.83;17.00;;;24.60;89.20;;;;;;4964712;28;20439;-81
2023/08/16 09:55:59;;;;;;;18.27;16.40;;;24.40;99.90;;;;;;4971015;28;20474;-82
2023/08/16 09:58:27;;;;;;;21.07;18.10;;;24.30;99.90;;;;;;4958508;28;20522;-82
2023/08/16 10:00:55;;;;;;;19.23;16.57;;;24.30;99.90;;;;;;4961225;28;20466;-83
2023/08/16 10:03:22;;;;;;;19.87;15.83;;;24.30;99.90;;;;;;4964498;28;20452;-82
2023/08/16 10:05:48;;;;;;;18.47;15.70;;;24.40;99.90;;;;;;4970503;28;20477;-83
2023/08/16 10:08:13;;;;;;;18.00;15.13;;;24.60;99.90;;;;;;4971032;28;20444;-84
2023/08/16 10:10:39;;;;;;;18.63;14.47;;;24.80;99.90;;;;;;4965775;28;20504;-83
2023/08/16 10:13:07;;;;;;;16.40;14.07;;;24.80;99.90;;;;;;4975711;28;20192;-82
2023/08/16 10:15:33;;;;;;;17.07;15.27;;;25.00;99.90;;;;;;4968766;28;20195;-84
2023/08/16 10:18:00;;;;;;;19.60;15.83;;;25.10;99.90;;;;;;4971165;28;20463;-83
2023/08/16 10:20:32;;;;;;;16.37;14.50;;;25.30;99.90;;;;;;4963723;28;20535;-83
2023/08/16 10:23:00;;;;;;;14.37;12.90;;;25.70;99.10;;;;;;4962098;28;20449;-82
2023/08/16 10:25:34;;;;;;;14.37;12.97;;;26.10;17.50;;;;;;4971248;28;20439;-84
2023/08/16 10:28:02;;;;;;;15.60;13.07;;;26.60;1.00;;;;;;4969223;28;20444;-83
2023/08/16 10:30:29;;;;;;;15.00;13.47;;;26.90;1.00;;;;;;4970205;28;20985;-83
2023/08/16 10:33:02;;;;;;;17.37;13.07;;;27.20;1.00;;;;;;4974046;28;20727;-83
2023/08/16 10:35:28;;;;;;;15.13;11.13;;;27.60;1.00;;;;;;4984113;28;20813;-83
2023/08/16 10:37:56;;;;;;;11.67;10.57;;;28.20;1.00;;;;;;4963422;28;20813;-83
2023/08/16 10:40:22;;;;;;;11.53;10.30;;;28.70;1.00;;;;;;4968992;28;20849;-83
2023/08/16 10:42:53;;;;;;;11.23;10.03;;;28.90;1.00;;;;;;4978505;28;20444;-83
2023/08/16 10:45:34;;;;;;;11.30;9.73;;;29.30;1.00;;;;;;4963189;28;20218;-83
2023/08/16 10:48:19;;;;;;;12.43;9.00;;;29.70;1.00;;;;;;4957757;28;20447;-83
2023/08/16 10:50:53;;;;;;;11.60;9.40;;;30.30;1.00;;;;;;4962217;28;20476;-84
2023/08/16 10:53:19;;;;;;;10.50;8.80;;;31.60;1.00;;;;;;4966380;28;20567;-83
2023/08/16 10:55:52;;;;;;;12.47;9.97;;;32.10;1.00;;;;;;4973063;28;20527;-84
2023/08/16 10:58:23;;;;;;;12.97;11.57;;;32.00;1.00;;;;;;4972339;28;20287;-84
2023/08/16 11:00:56;;;;;;;12.63;11.37;;;31.40;1.00;;;;;;4963753;28;20494;-81
2023/08/16 11:03:24;;;;;;;11.63;9.60;;;31.00;1.00;;;;;;4962205;28;20916;-83
2023/08/16 11:05:51;;;;;;;11.63;10.60;;;31.10;1.00;;;;;;4957321;28;20456;-85
2023/08/16 11:08:17;;;;;;;11.77;10.57;;;32.40;1.00;;;;;;4964783;28;20446;-81
2023/08/16 11:10:43;;;;;;;12.03;11.00;;;32.80;1.00;;;;;;4968462;28;20609;-83
2023/08/16 11:13:10;;;;;;;14.47;11.10;;;32.70;1.00;;;;;;4955958;28;20189;-84
2023/08/16 11:15:37;;;;;;;10.60;9.10;;;33.10;1.00;;;;;;4959375;28;20180;-84
2023/08/16 11:18:03;;;;;;;11.57;10.43;;;33.50;1.00;;;;;;4972875;28;20451;-84
2023/08/16 11:20:41;;;;;;;17.70;12.07;;;33.60;1.00;;;;;;4967557;28;20463;-85
2023/08/16 11:23:14;;;;;;;12.57;10.50;;;33.30;1.00;;;;;;4973507;28;20463;-84
2023/08/16 11:26:04;;;;;;;11.37;10.37;;;33.00;1.00;;;;;;4982045;28;20453;-84
2023/08/16 11:28:31;;;;;;;13.00;10.80;;;32.80;1.00;;;;;;4964458;28;20425;-84
2023/08/16 11:30:58;;;;;;;12.33;11.20;;;32.30;1.00;;;;;;4964171;28;20499;-84
2023/08/16 11:33:24;;;;;;;12.70;9.83;;;31.80;1.00;;;;;;4960620;28;20455;-84
2023/08/16 11:35:49;;;;;;;10.67;9.57;;;31.70;1.00;;;;;;4962050;28;20444;-84
2023/08/16 11:38:15;;;;;;;11.20;8.77;;;31.80;1.00;;;;;;4958483;28;20445;-84
2023/08/16 11:40:45;;;;;;;10.50;9.40;;;31.80;1.00;;;;;;4953278;28;20228;-85
2023/08/16 11:43:11;;;;;;;10.00;9.10;;;31.80;1.00;;;;;;4956619;28;20181;-84
2023/08/16 11:45:36;;;;;;;10.20;9.30;;;31.80;1.00;;;;;;4960893;28;20451;-84
2023/08/16 11:48:03;;;;;;;10.63;8.43;;;31.70;1.00;;;;;;4959625;28;20667;-82
2023/08/16 11:50:28;;;;;;;8.47;7.67;;;32.00;1.00;;;;;;4959453;28;20219;-84
2023/08/16 11:53:03;;;;;;;9.90;7.43;;;32.90;1.00;;;;;;4962581;28;20436;-85
2023/08/16 11:55:33;;;;;;;9.00;7.30;;;32.90;1.00;;;;;;4970624;28;20176;-84
2023/08/16 11:58:09;;;;;;;9.07;8.00;;;32.80;1.00;;;;;;4963148;28;20463;-84
2023/08/16 12:00:36;;;;;;;9.47;8.57;;;32.70;1.00;;;;;;4972525;28;20478;-84
2023/08/16 12:03:03;;;;;;;10.93;9.63;;;32.50;1.00;;;;;;4969063;28;20432;-85
2023/08/16 12:05:36;;;;;;;10.80;8.47;;;31.90;1.00;;;;;;4966458;28;20444;-84
2023/08/16 12:08:07;;;;;;;8.70;7.20;;;32.20;1.00;;;;;;4962651;28;20501;-85
2023/08/16 12:10:33;;;;;;;10.10;9.10;;;32.40;1.00;;;;;;4964964;28;20476;-83
2023/08/16 12:13:09;;;;;;;7.73;7.03;;;32.10;1.00;;;;;;4964269;28;20458;-84
2023/08/16 12:15:35;;;;;;;10.70;9.60;;;32.20;1.00;;;;;;4970164;28;20437;-85
2023/08/16 12:18:03;;;;;;;8.87;8.07;;;31.90;1.00;;;;;;4973193;28;20948;-82
2023/08/16 12:20:29;;;;;;;10.77;9.67;;;32.90;1.00;;;;;;4967577;28;20209;-85
2023/08/16 12:22:55;;;;;;;8.47;7.53;;;32.90;1.00;;;;;;4969933;28;20439;-83
2023/08/16 12:25:21;;;;;;;8.33;7.53;;;33.00;1.00;;;;;;4971950;28;20199;-85
2023/08/16 12:27:46;;;;;;;11.07;9.47;;;32.60;1.00;;;;;;4974233;28;20447;-82
2023/08/16 12:30:12;;;;;;;10.10;8.67;;;31.90;1.00;;;;;;4958423;28;20221;-81
2023/08/16 12:32:38;;;;;;;11.10;8.27;;;31.50;1.00;;;;;;4969042;28;20533;-84
2023/08/16 12:35:04;;;;;;;11.10;10.00;;;31.10;1.00;;;;;;4957572;28;20183;-84
2023/08/16 12:37:30;;;;;;;8.63;7.60;;;30.40;1.00;;;;;;4957235;28;20183;-84
2023/08/16 12:39:55;;;;;;;12.67;9.00;;;30.20;1.00;;;;;;4967396;28;20460;-82
2023/08/16 12:42:21;;;;;;;10.07;8.77;;;30.20;1.00;;;;;;4964473;28;20184;-83
2023/08/16 12:44:46;;;;;;;9.10;8.10;;;29.90;1.00;;;;;;4966821;28;20192;-83